Time;durP1;ratioP1;P1;durP2;ratioP2;P2;SDS_P1;SDS_P2;PMS_P1;PMS_P2;Temp;Humidity;BMP_temperature;BMP_pressure;BME280_temperature;BME280_humidity;BME280_pressure;Samples;Min_cycle;Max_cycle;Signal;HPM_P1;HPM_P2
2023/05/05 00:01:52;;;;;;;11.70;4.07;;;11.60;99.90;;;;;;4999828;28;20128;-75
2023/05/05 00:04:21;;;;;;;11.85;3.67;;;12.00;99.90;;;;;;5006039;28;20082;-75
2023/05/05 00:06:47;;;;;;;13.65;4.20;;;11.60;99.90;;;;;;5003192;28;20057;-75
2023/05/05 00:09:13;;;;;;;10.75;4.35;;;11.60;99.90;;;;;;4988224;28;20046;-75
2023/05/05 00:11:39;;;;;;;12.68;4.22;;;11.60;99.90;;;;;;4987542;28;20061;-75
2023/05/05 00:14:05;;;;;;;14.15;4.22;;;11.60;99.90;;;;;;5007660;28;20053;-75
2023/05/05 00:16:31;;;;;;;10.45;3.92;;;11.50;99.90;;;;;;5001401;28;20519;-74
2023/05/05 00:18:57;;;;;;;9.05;4.15;;;11.50;99.90;;;;;;4992049;28;20113;-75
2023/05/05 00:21:23;;;;;;;10.00;3.55;;;11.60;99.90;;;;;;5008078;28;20054;-75
2023/05/05 00:23:49;;;;;;;11.05;5.10;;;11.90;99.90;;;;;;5007791;28;20482;-75
2023/05/05 00:26:15;;;;;;;10.85;3.88;;;11.50;99.90;;;;;;5008391;28;20137;-75
2023/05/05 00:28:40;;;;;;;8.20;3.78;;;11.50;99.90;;;;;;5008049;28;20133;-75
2023/05/05 00:31:07;;;;;;;11.85;4.65;;;11.40;99.90;;;;;;5008456;28;20133;-74
2023/05/05 00:33:33;;;;;;;9.02;4.00;;;11.40;99.90;;;;;;5006971;28;20046;-75
2023/05/05 00:35:58;;;;;;;14.65;4.10;;;11.40;99.90;;;;;;5007513;28;20057;-75
2023/05/05 00:38:24;;;;;;;9.93;4.30;;;11.40;99.90;;;;;;5007488;28;20135;-75
2023/05/05 00:40:50;;;;;;;12.32;4.05;;;11.40;99.90;;;;;;5010012;28;20053;-75
2023/05/05 00:43:15;;;;;;;8.20;3.72;;;11.40;99.90;;;;;;5007493;28;20058;-75
2023/05/05 00:45:46;;;;;;;8.30;3.80;;;11.30;99.90;;;;;;5006229;28;20041;-75
2023/05/05 00:48:12;;;;;;;10.35;4.20;;;11.30;99.90;;;;;;4976130;28;20050;-74
2023/05/05 00:50:38;;;;;;;8.88;3.97;;;11.30;99.90;;;;;;5000134;28;20180;-75
2023/05/05 00:53:05;;;;;;;8.63;4.00;;;11.30;99.90;;;;;;5006432;28;20042;-75
2023/05/05 00:55:33;;;;;;;9.48;3.88;;;11.30;99.90;;;;;;5007460;28;20434;-75
2023/05/05 00:57:59;;;;;;;10.98;4.10;;;11.30;99.90;;;;;;5007636;28;20050;-75
2023/05/05 01:00:26;;;;;;;11.00;4.55;;;11.30;99.90;;;;;;5006279;28;20053;-74
2023/05/05 01:02:52;;;;;;;8.60;3.97;;;11.20;99.90;;;;;;5009418;28;20476;-74
2023/05/05 01:05:20;;;;;;;12.30;3.90;;;11.20;99.90;;;;;;4984637;28;20111;-74
2023/05/05 01:08:25;;;;;;;11.82;4.43;;;11.20;99.90;;;;;;4991556;28;20042;-75
2023/05/05 01:11:15;;;;;;;11.32;4.32;;;11.20;99.90;;;;;;5017396;28;20707;-75
2023/05/05 01:13:44;;;;;;;11.13;4.07;;;11.20;99.90;;;;;;5005796;28;20046;-75
2023/05/05 01:16:26;;;;;;;13.40;3.70;;;11.20;99.90;;;;;;5007761;28;20380;-75
2023/05/05 01:19:11;;;;;;;9.95;3.88;;;11.20;99.90;;;;;;4998420;28;20570;-74
2023/05/05 01:21:45;;;;;;;7.60;3.65;;;11.10;99.90;;;;;;5004588;28;20049;-75
2023/05/05 01:24:50;;;;;;;9.93;3.88;;;11.20;99.90;;;;;;4988198;28;20061;-75
2023/05/05 01:27:54;;;;;;;10.73;3.97;;;11.10;99.90;;;;;;4989424;28;20486;-75
2023/05/05 01:30:56;;;;;;;11.35;4.00;;;11.10;99.90;;;;;;4988514;28;20054;-76
2023/05/05 01:33:30;;;;;;;11.73;3.90;;;11.10;99.90;;;;;;4971727;28;20483;-75
2023/05/05 01:36:09;;;;;;;17.63;4.40;;;11.10;99.90;;;;;;4996184;28;20103;-76
2023/05/05 01:38:39;;;;;;;12.32;3.58;;;11.10;99.90;;;;;;5006914;28;20772;-75
2023/05/05 01:41:29;;;;;;;11.18;3.33;;;11.10;99.90;;;;;;4989482;28;20069;-74
2023/05/05 01:43:55;;;;;;;11.82;3.80;;;11.00;99.90;;;;;;5008153;28;20499;-75
2023/05/05 01:46:23;;;;;;;7.38;3.30;;;11.10;99.90;;;;;;5008078;28;20049;-75
2023/05/05 01:48:51;;;;;;;8.07;3.95;;;11.00;99.90;;;;;;4992861;28;20038;-75
2023/05/05 01:51:21;;;;;;;12.30;3.70;;;11.00;99.90;;;;;;4980306;28;20046;-75
2023/05/05 01:53:48;;;;;;;8.65;3.80;;;11.00;99.90;;;;;;5005029;28;20084;-75
2023/05/05 01:56:15;;;;;;;8.77;3.28;;;11.00;99.90;;;;;;4990211;28;20142;-74
2023/05/05 01:58:45;;;;;;;10.52;3.78;;;11.00;99.90;;;;;;5006511;28;20050;-74
2023/05/05 02:01:12;;;;;;;10.32;4.40;;;11.00;99.90;;;;;;5007482;28;20471;-75
2023/05/05 02:03:39;;;;;;;9.90;4.15;;;10.90;99.90;;;;;;5003801;28;20084;-74
2023/05/05 02:06:07;;;;;;;10.32;3.50;;;11.20;99.90;;;;;;5005823;28;20132;-74
2023/05/05 02:08:35;;;;;;;8.40;3.80;;;11.00;99.90;;;;;;5005095;28;20111;-75
2023/05/05 02:11:02;;;;;;;10.20;3.92;;;11.00;99.90;;;;;;5008385;28;20045;-75
2023/05/05 02:13:31;;;;;;;8.60;3.83;;;11.00;99.90;;;;;;5007063;28;20077;-75
2023/05/05 02:15:57;;;;;;;8.13;3.60;;;11.00;99.90;;;;;;5005526;28;20068;-75
2023/05/05 02:18:25;;;;;;;10.52;4.00;;;11.00;99.90;;;;;;4998056;28;20046;-75
2023/05/05 02:20:52;;;;;;;9.77;3.78;;;11.00;99.90;;;;;;4978447;28;20064;-75
2023/05/05 02:23:18;;;;;;;11.57;3.90;;;11.00;99.90;;;;;;4986040;28;20047;-74
2023/05/05 02:25:50;;;;;;;9.90;4.35;;;10.90;99.90;;;;;;4988144;28;20038;-75
2023/05/05 02:28:46;;;;;;;9.20;3.80;;;10.90;99.90;;;;;;4987436;28;20048;-75
2023/05/05 02:31:15;;;;;;;12.43;4.10;;;10.90;99.90;;;;;;4981744;28;20100;-75
2023/05/05 02:33:46;;;;;;;10.60;4.47;;;10.90;99.90;;;;;;5005022;28;20073;-74
2023/05/05 02:36:18;;;;;;;15.30;3.88;;;10.90;99.90;;;;;;5005158;28;20053;-75
2023/05/05 02:38:45;;;;;;;11.38;3.60;;;10.90;99.90;;;;;;5005404;28;20446;-76
2023/05/05 02:41:15;;;;;;;10.05;4.15;;;11.00;99.90;;;;;;5007169;28;20049;-76
2023/05/05 02:43:42;;;;;;;11.27;4.25;;;10.90;99.90;;;;;;5006133;28;20466;-76
2023/05/05 02:46:08;;;;;;;11.93;4.40;;;10.90;99.90;;;;;;4989087;28;20080;-76
2023/05/05 02:48:34;;;;;;;10.73;4.07;;;10.90;99.90;;;;;;4988197;28;20473;-75
2023/05/05 02:51:00;;;;;;;12.07;4.30;;;10.90;99.90;;;;;;5004867;28;20120;-75
2023/05/05 02:53:27;;;;;;;12.23;4.53;;;10.90;99.90;;;;;;4989030;28;20049;-75
2023/05/05 02:56:09;;;;;;;12.23;4.38;;;10.90;99.90;;;;;;5007111;28;20045;-75
2023/05/05 02:58:51;;;;;;;10.30;4.50;;;10.90;99.90;;;;;;5004828;28;20046;-75
2023/05/05 03:01:25;;;;;;;7.85;3.90;;;10.90;99.90;;;;;;4986562;28;20061;-75
2023/05/05 03:04:04;;;;;;;9.90;3.85;;;10.90;99.90;;;;;;4986476;28;20054;-75
2023/05/05 03:06:39;;;;;;;14.75;4.30;;;10.80;99.90;;;;;;4994372;28;20103;-75
2023/05/05 03:09:09;;;;;;;7.05;3.67;;;10.80;99.90;;;;;;4987046;28;20054;-76
2023/05/05 03:12:02;;;;;;;14.13;4.23;;;10.80;99.90;;;;;;5004097;28;20468;-75
2023/05/05 03:14:35;;;;;;;10.55;4.30;;;10.80;99.90;;;;;;5004854;28;20075;-76
2023/05/05 03:17:01;;;;;;;9.35;4.20;;;10.80;99.90;;;;;;5008411;28;20058;-77
2023/05/05 03:19:28;;;;;;;10.20;4.07;;;10.80;99.90;;;;;;5003399;28;20045;-76
2023/05/05 03:21:54;;;;;;;10.98;4.45;;;10.80;99.90;;;;;;5003689;28;20053;-76
2023/05/05 03:24:20;;;;;;;10.75;4.20;;;10.70;99.90;;;;;;5006275;28;20049;-75
2023/05/05 03:26:48;;;;;;;10.07;4.30;;;10.70;99.90;;;;;;5005712;28;20056;-76
2023/05/05 03:29:15;;;;;;;13.40;4.60;;;10.70;99.90;;;;;;5006002;28;20037;-76
2023/05/05 03:31:41;;;;;;;9.07;4.25;;;10.70;99.90;;;;;;5005636;28;20046;-76
2023/05/05 03:34:07;;;;;;;10.77;4.15;;;10.70;99.90;;;;;;5005066;28;20053;-76
2023/05/05 03:36:34;;;;;;;10.77;4.00;;;10.70;99.90;;;;;;5004286;28;20132;-76
2023/05/05 03:38:59;;;;;;;11.75;4.30;;;10.70;99.90;;;;;;5004607;28;20684;-76
2023/05/05 03:41:26;;;;;;;12.43;3.95;;;10.70;99.90;;;;;;5004268;28;20042;-76
2023/05/05 03:43:52;;;;;;;11.60;4.10;;;10.70;99.90;;;;;;5004999;28;20573;-76
2023/05/05 03:46:18;;;;;;;10.43;4.18;;;10.70;99.90;;;;;;5004904;28;20042;-76
2023/05/05 03:48:43;;;;;;;10.20;4.32;;;10.80;99.90;;;;;;5002655;28;20053;-77
2023/05/05 03:51:09;;;;;;;10.98;3.65;;;10.70;99.90;;;;;;4985447;28;20260;-75
2023/05/05 03:53:35;;;;;;;8.95;4.22;;;10.70;99.90;;;;;;5002970;28;20127;-74
2023/05/05 03:56:00;;;;;;;9.10;3.85;;;10.80;99.90;;;;;;5004536;28;20526;-74
2023/05/05 03:58:26;;;;;;;8.80;4.13;;;10.70;99.90;;;;;;4974269;28;20834;-74
2023/05/05 04:00:52;;;;;;;10.15;4.18;;;10.70;99.90;;;;;;4993033;28;20054;-74
2023/05/05 04:03:18;;;;;;;9.38;3.50;;;10.80;99.90;;;;;;5004544;28;20046;-74
2023/05/05 04:05:43;;;;;;;8.43;3.90;;;10.80;99.90;;;;;;4987650;28;20056;-74
2023/05/05 04:08:09;;;;;;;13.98;4.72;;;10.80;99.90;;;;;;4988524;28;20865;-74
2023/05/05 04:10:35;;;;;;;10.02;4.30;;;10.80;99.90;;;;;;4987851;28;20053;-74
2023/05/05 04:13:00;;;;;;;12.80;4.35;;;10.80;99.90;;;;;;5003980;28;20549;-74
2023/05/05 04:15:26;;;;;;;10.70;4.10;;;10.80;99.90;;;;;;4987531;28;20049;-73
2023/05/05 04:17:52;;;;;;;9.52;3.95;;;10.80;99.90;;;;;;5006197;28;20053;-73
2023/05/05 04:20:18;;;;;;;10.07;4.22;;;10.80;99.90;;;;;;4999509;28;20050;-73
2023/05/05 04:22:43;;;;;;;8.25;4.60;;;10.80;99.90;;;;;;4986077;28;20108;-73
2023/05/05 04:25:09;;;;;;;10.02;4.88;;;10.80;99.90;;;;;;4987141;28;20039;-73
2023/05/05 04:27:35;;;;;;;10.25;4.78;;;10.70;99.90;;;;;;4985919;28;20104;-73
2023/05/05 04:30:01;;;;;;;12.70;5.20;;;11.00;99.90;;;;;;4992835;28;20034;-72
2023/05/05 04:32:27;;;;;;;9.90;5.18;;;10.70;99.90;;;;;;5005482;28;20049;-72
2023/05/05 04:34:53;;;;;;;11.00;5.18;;;10.60;99.90;;;;;;4987789;28;20073;-71
2023/05/05 04:37:19;;;;;;;11.32;5.28;;;10.60;99.90;;;;;;5004053;28;20610;-72
2023/05/05 04:39:45;;;;;;;10.02;5.22;;;10.50;99.90;;;;;;5003081;28;20057;-71
2023/05/05 04:42:11;;;;;;;13.13;5.38;;;10.50;99.90;;;;;;4996105;28;20049;-72
2023/05/05 04:44:37;;;;;;;12.80;5.57;;;10.50;99.90;;;;;;4999461;28;20042;-73
2023/05/05 04:47:04;;;;;;;10.90;5.07;;;10.40;99.90;;;;;;4987562;28;20510;-73
2023/05/05 04:49:30;;;;;;;9.30;5.03;;;10.40;99.90;;;;;;5003624;28;20120;-73
2023/05/05 04:51:56;;;;;;;11.77;5.32;;;10.40;99.90;;;;;;5002695;28;20524;-73
2023/05/05 04:54:22;;;;;;;10.73;4.97;;;10.40;99.90;;;;;;5005220;28;20137;-72
2023/05/05 04:56:48;;;;;;;10.02;5.07;;;10.40;99.90;;;;;;5004140;28;20121;-73
2023/05/05 04:59:14;;;;;;;12.85;5.38;;;10.30;99.90;;;;;;5006241;28;20057;-72
2023/05/05 05:01:40;;;;;;;11.18;6.32;;;10.30;99.90;;;;;;5006168;28;20066;-73
2023/05/05 05:04:07;;;;;;;12.35;5.82;;;10.30;99.90;;;;;;5006818;28;20427;-73
2023/05/05 05:06:33;;;;;;;11.15;5.55;;;10.30;99.90;;;;;;5008860;28;20089;-72
2023/05/05 05:08:59;;;;;;;17.08;5.82;;;10.30;99.90;;;;;;4991606;28;20038;-73
2023/05/05 05:11:25;;;;;;;11.70;5.65;;;10.30;99.90;;;;;;5007118;28;20050;-73
2023/05/05 05:13:51;;;;;;;9.80;5.35;;;10.30;99.90;;;;;;5009045;28;20041;-72
2023/05/05 05:16:17;;;;;;;13.05;5.22;;;10.30;99.90;;;;;;5007786;28;20053;-70
2023/05/05 05:18:43;;;;;;;12.43;5.75;;;10.20;99.90;;;;;;4989904;28;20053;-71
2023/05/05 05:21:09;;;;;;;10.20;5.47;;;10.20;99.90;;;;;;5005419;28;20046;-70
2023/05/05 05:23:35;;;;;;;10.82;5.55;;;10.10;99.90;;;;;;5006484;28;20042;-71
2023/05/05 05:26:01;;;;;;;12.73;6.05;;;10.10;99.90;;;;;;5006500;28;20056;-71
2023/05/05 05:28:26;;;;;;;10.13;5.32;;;10.10;99.90;;;;;;4983843;28;20050;-71
2023/05/05 05:30:52;;;;;;;13.15;5.68;;;10.10;99.90;;;;;;5004364;28;20042;-72
2023/05/05 05:33:18;;;;;;;10.55;5.20;;;10.10;99.90;;;;;;4998916;28;20044;-71
2023/05/05 05:35:44;;;;;;;10.60;5.78;;;10.10;99.90;;;;;;5005766;28;20120;-71
2023/05/05 05:38:10;;;;;;;14.80;6.47;;;10.10;99.90;;;;;;5007433;28;20566;-72
2023/05/05 05:40:36;;;;;;;15.43;5.85;;;10.10;99.90;;;;;;5006118;28;20188;-72
2023/05/05 05:43:03;;;;;;;10.38;5.43;;;10.20;99.90;;;;;;4989611;28;20050;-71
2023/05/05 05:45:28;;;;;;;12.38;5.97;;;10.20;99.90;;;;;;4993377;28;20047;-72
2023/05/05 05:47:54;;;;;;;12.50;6.10;;;10.30;99.90;;;;;;4994222;28;20406;-71
2023/05/05 05:50:20;;;;;;;11.27;5.85;;;10.30;99.90;;;;;;5004895;28;20131;-72
2023/05/05 05:52:46;;;;;;;13.18;6.70;;;10.30;99.90;;;;;;5003714;28;20045;-72
2023/05/05 05:55:12;;;;;;;13.38;6.43;;;10.30;99.90;;;;;;4999060;28;20046;-72
2023/05/05 05:57:37;;;;;;;10.98;6.28;;;10.40;99.90;;;;;;4998495;28;20037;-71
2023/05/05 06:00:04;;;;;;;9.60;5.82;;;10.50;99.90;;;;;;4993752;28;20054;-72
2023/05/05 06:02:31;;;;;;;18.58;7.03;;;10.40;99.90;;;;;;4991080;28;20077;-72
2023/05/05 06:04:57;;;;;;;13.65;5.82;;;10.70;99.90;;;;;;5004632;28;20761;-72
2023/05/05 06:07:22;;;;;;;12.52;6.05;;;10.50;99.90;;;;;;5003611;28;20046;-72
2023/05/05 06:09:48;;;;;;;13.50;6.20;;;10.50;99.90;;;;;;5000621;28;20058;-72
2023/05/05 06:12:15;;;;;;;12.15;5.93;;;10.50;99.90;;;;;;4983888;28;20045;-72
2023/05/05 06:14:40;;;;;;;11.32;6.53;;;10.50;99.90;;;;;;5002056;28;20046;-72
2023/05/05 06:17:06;;;;;;;12.93;6.43;;;10.50;99.90;;;;;;4983991;28;20126;-72
2023/05/05 06:19:33;;;;;;;12.45;6.60;;;10.50;99.90;;;;;;4998022;28;20553;-72
2023/05/05 06:21:58;;;;;;;8.90;5.82;;;10.60;99.90;;;;;;4996890;28;20049;-72
2023/05/05 06:24:24;;;;;;;13.75;6.25;;;10.60;99.90;;;;;;4992244;28;20050;-72
2023/05/05 06:26:50;;;;;;;9.93;6.30;;;10.60;99.90;;;;;;4990501;28;20040;-72
2023/05/05 06:29:15;;;;;;;13.68;6.40;;;10.60;99.90;;;;;;4991817;28;20096;-72
2023/05/05 06:31:41;;;;;;;14.50;6.88;;;10.60;99.90;;;;;;5003228;28;20042;-72
2023/05/05 06:34:07;;;;;;;13.77;6.22;;;10.70;99.90;;;;;;5004229;28;20096;-72
2023/05/05 06:36:32;;;;;;;12.38;6.63;;;11.00;99.90;;;;;;4996572;28;20052;-72
2023/05/05 06:38:58;;;;;;;10.80;6.18;;;10.80;99.90;;;;;;4987459;28;20045;-72
2023/05/05 06:41:24;;;;;;;12.27;6.78;;;10.80;99.90;;;;;;5005674;28;20038;-72
2023/05/05 06:43:49;;;;;;;14.80;6.35;;;11.00;99.90;;;;;;4995992;28;20550;-72
2023/05/05 06:46:15;;;;;;;15.32;6.70;;;10.90;99.90;;;;;;5009839;28;20392;-73
2023/05/05 06:48:41;;;;;;;12.23;6.88;;;10.90;99.90;;;;;;4989420;28;20053;-71
2023/05/05 06:51:08;;;;;;;15.88;6.90;;;10.90;99.90;;;;;;4991829;28;20037;-72
2023/05/05 06:53:33;;;;;;;10.93;6.47;;;10.90;99.90;;;;;;4999794;28;20483;-72
2023/05/05 06:55:59;;;;;;;11.43;6.65;;;11.00;99.90;;;;;;5003428;28;20104;-72
2023/05/05 06:58:25;;;;;;;11.07;6.25;;;11.10;99.90;;;;;;4980541;28;20046;-73
2023/05/05 07:00:51;;;;;;;11.25;6.45;;;11.10;99.90;;;;;;5000079;28;20532;-72
2023/05/05 07:03:16;;;;;;;12.45;7.32;;;11.20;99.90;;;;;;4992700;28;20057;-72
2023/05/05 07:05:42;;;;;;;13.80;7.60;;;11.30;99.90;;;;;;4984525;28;20068;-72
2023/05/05 07:08:08;;;;;;;12.32;6.45;;;11.40;99.90;;;;;;5006850;28;20077;-73
2023/05/05 07:10:34;;;;;;;10.95;7.10;;;11.50;99.90;;;;;;5006008;28;20046;-73
2023/05/05 07:13:00;;;;;;;13.52;7.10;;;11.50;99.90;;;;;;5001679;28;21791;-73
2023/05/05 07:15:25;;;;;;;14.63;7.03;;;11.60;99.90;;;;;;4980425;28;20050;-73
2023/05/05 07:17:51;;;;;;;12.70;6.63;;;11.70;99.90;;;;;;4987841;28;20182;-72
2023/05/05 07:20:17;;;;;;;10.65;6.72;;;11.90;99.90;;;;;;5005948;28;20041;-73
2023/05/05 07:22:43;;;;;;;12.73;7.22;;;11.90;99.90;;;;;;5002034;28;20116;-74
2023/05/05 07:25:09;;;;;;;14.40;7.00;;;12.10;99.90;;;;;;5001200;28;20048;-74
2023/05/05 07:27:36;;;;;;;12.77;7.38;;;12.20;99.90;;;;;;5003504;28;20042;-73
2023/05/05 07:30:02;;;;;;;16.35;7.78;;;12.30;99.90;;;;;;5002294;28;20077;-74
2023/05/05 07:32:28;;;;;;;12.45;7.47;;;12.40;99.90;;;;;;4996621;28;20056;-73
2023/05/05 07:34:53;;;;;;;12.32;7.47;;;12.50;99.90;;;;;;5001571;28;20042;-74
2023/05/05 07:37:19;;;;;;;11.45;6.45;;;12.70;99.90;;;;;;5000732;28;20045;-74
2023/05/05 07:39:47;;;;;;;15.40;7.45;;;12.70;99.90;;;;;;5003136;28;20081;-74
2023/05/05 07:42:13;;;;;;;13.45;7.20;;;12.90;99.90;;;;;;4996116;28;20145;-74
2023/05/05 07:44:39;;;;;;;12.43;7.47;;;13.00;99.90;;;;;;5002817;28;20470;-75
2023/05/05 07:47:05;;;;;;;15.43;7.30;;;13.10;99.90;;;;;;5000458;28;20060;-74
2023/05/05 07:49:30;;;;;;;11.82;7.40;;;13.20;99.90;;;;;;5002736;28;20049;-72
2023/05/05 07:51:56;;;;;;;15.10;7.63;;;13.40;99.90;;;;;;5001412;28;20095;-74
2023/05/05 07:54:22;;;;;;;12.40;6.68;;;13.50;99.90;;;;;;4985363;28;20046;-75
2023/05/05 07:56:47;;;;;;;12.73;6.93;;;13.60;99.90;;;;;;4999988;28;21730;-75
2023/05/05 07:59:13;;;;;;;13.45;8.27;;;13.60;99.90;;;;;;4998828;28;20089;-73
2023/05/05 08:01:40;;;;;;;11.85;6.97;;;13.60;99.90;;;;;;4996550;28;20065;-74
2023/05/05 08:04:06;;;;;;;14.18;6.88;;;13.70;99.90;;;;;;4981004;28;20065;-74
2023/05/05 08:06:32;;;;;;;13.50;8.35;;;13.80;99.90;;;;;;4999508;28;20050;-74
2023/05/05 08:09:02;;;;;;;9.88;7.68;;;13.90;99.90;;;;;;4983604;28;20049;-74
2023/05/05 08:11:28;;;;;;;10.68;7.53;;;14.00;99.90;;;;;;4983280;28;20042;-74
2023/05/05 08:13:53;;;;;;;13.07;7.68;;;14.10;99.90;;;;;;4997438;28;20107;-74
2023/05/05 08:16:19;;;;;;;14.40;8.80;;;14.30;99.90;;;;;;4979423;28;20050;-74
2023/05/05 08:18:45;;;;;;;13.18;8.20;;;14.50;99.90;;;;;;4981971;28;20499;-74
2023/05/05 08:21:11;;;;;;;13.68;8.57;;;14.60;99.90;;;;;;4999586;28;20065;-74
2023/05/05 08:23:38;;;;;;;14.05;8.23;;;14.70;99.90;;;;;;4991521;28;20045;-74
2023/05/05 08:26:05;;;;;;;16.55;8.75;;;14.80;99.90;;;;;;4987588;28;20511;-73
2023/05/05 08:28:31;;;;;;;13.55;8.10;;;14.80;99.90;;;;;;4991963;28;20052;-73
2023/05/05 08:30:58;;;;;;;14.20;8.32;;;14.90;99.90;;;;;;4992984;28;20049;-73
2023/05/05 08:33:24;;;;;;;16.10;8.75;;;15.00;99.90;;;;;;4996124;28;20407;-74
2023/05/05 08:35:49;;;;;;;15.52;9.70;;;15.10;99.90;;;;;;4998535;28;20045;-74
2023/05/05 08:38:15;;;;;;;13.02;8.90;;;15.10;99.90;;;;;;5000148;28;20038;-73
2023/05/05 08:40:41;;;;;;;12.32;8.85;;;15.30;99.90;;;;;;5001675;28;20537;-73
2023/05/05 08:43:07;;;;;;;13.48;8.68;;;15.40;99.90;;;;;;4994629;28;20135;-73
2023/05/05 08:45:33;;;;;;;12.27;8.55;;;15.50;99.90;;;;;;4998683;28;20088;-74
2023/05/05 08:48:03;;;;;;;15.32;9.68;;;15.60;99.90;;;;;;4981386;28;20045;-73
2023/05/05 08:50:30;;;;;;;13.38;9.13;;;15.80;99.90;;;;;;4980661;28;20042;-74
2023/05/05 08:53:34;;;;;;;14.50;9.52;;;15.90;99.90;;;;;;4996479;28;20042;-74
2023/05/05 08:56:02;;;;;;;16.42;10.02;;;16.00;99.90;;;;;;4997010;28;20046;-74
2023/05/05 08:58:30;;;;;;;13.30;9.07;;;16.20;99.90;;;;;;4993995;28;20046;-74
2023/05/05 09:00:56;;;;;;;19.85;10.65;;;16.30;99.90;;;;;;4977708;28;20046;-74
2023/05/05 09:03:22;;;;;;;16.17;10.23;;;16.50;99.90;;;;;;4998092;28;20050;-73
2023/05/05 09:05:49;;;;;;;13.60;9.60;;;16.60;99.90;;;;;;4975262;28;20056;-74
2023/05/05 09:08:16;;;;;;;17.15;9.98;;;16.80;99.90;;;;;;4992637;28;21081;-75
2023/05/05 09:10:43;;;;;;;14.80;9.23;;;16.90;99.90;;;;;;4990454;28;20659;-74
2023/05/05 09:13:09;;;;;;;14.43;10.48;;;16.90;99.90;;;;;;4973213;28;20045;-74
2023/05/05 09:15:37;;;;;;;13.27;9.73;;;17.00;99.90;;;;;;4990829;28;20061;-75
2023/05/05 09:18:05;;;;;;;17.13;11.02;;;17.00;99.90;;;;;;4996569;28;20042;-75
2023/05/05 09:20:35;;;;;;;14.30;10.00;;;17.00;99.90;;;;;;4995706;28;20046;-74
2023/05/05 09:23:11;;;;;;;18.30;10.60;;;17.00;99.90;;;;;;4977869;28;20121;-74
2023/05/05 09:25:38;;;;;;;17.30;11.80;;;17.00;99.90;;;;;;4976535;28;20140;-74
2023/05/05 09:28:10;;;;;;;14.10;10.68;;;17.10;99.90;;;;;;4998991;28;20049;-73
2023/05/05 09:30:37;;;;;;;15.18;9.50;;;17.20;99.90;;;;;;4999161;28;20515;-74
2023/05/05 09:33:03;;;;;;;14.43;10.55;;;17.30;99.90;;;;;;4998592;28;20035;-74
2023/05/05 09:35:51;;;;;;;14.88;10.00;;;17.40;99.90;;;;;;4999884;28;20057;-73
2023/05/05 09:38:18;;;;;;;14.50;10.25;;;17.40;99.90;;;;;;4981955;28;20050;-73
2023/05/05 09:40:48;;;;;;;15.45;9.40;;;17.40;99.90;;;;;;4994213;28;20046;-74
2023/05/05 09:43:20;;;;;;;14.93;9.98;;;17.40;99.90;;;;;;4998481;28;20061;-74
2023/05/05 09:45:47;;;;;;;15.75;10.95;;;17.50;99.90;;;;;;4997010;28;20261;-74
2023/05/05 09:48:27;;;;;;;14.90;11.13;;;17.60;99.90;;;;;;4992673;28;20049;-73
2023/05/05 09:50:54;;;;;;;16.08;10.63;;;17.80;99.90;;;;;;4981076;28;20148;-72
2023/05/05 09:53:20;;;;;;;14.93;11.73;;;17.90;99.90;;;;;;4993721;28;20419;-73
2023/05/05 09:55:56;;;;;;;19.10;12.35;;;18.00;99.90;;;;;;4999960;28;20060;-73
2023/05/05 09:58:27;;;;;;;19.73;12.93;;;18.10;99.90;;;;;;4999583;28;20058;-73
2023/05/05 10:00:54;;;;;;;18.48;11.77;;;18.20;99.90;;;;;;4982852;28;20046;-74
2023/05/05 10:03:20;;;;;;;17.05;12.40;;;18.30;99.90;;;;;;4997344;28;21532;-74
2023/05/05 10:05:57;;;;;;;20.08;14.25;;;18.30;99.90;;;;;;4976717;28;20420;-74
2023/05/05 10:08:29;;;;;;;23.80;17.30;;;18.40;99.90;;;;;;5000542;28;20052;-75
2023/05/05 10:10:59;;;;;;;27.45;17.67;;;18.40;99.90;;;;;;4997640;28;20050;-74
2023/05/05 10:13:25;;;;;;;22.87;17.13;;;18.40;99.90;;;;;;5003100;28;20042;-74
2023/05/05 10:15:54;;;;;;;27.85;18.80;;;18.40;99.90;;;;;;4994368;28;20058;-74
2023/05/05 10:18:27;;;;;;;26.33;18.38;;;18.50;99.90;;;;;;5003843;28;20041;-74
2023/05/05 10:20:58;;;;;;;26.98;19.20;;;18.60;99.90;;;;;;4981176;28;20049;-74
2023/05/05 10:23:33;;;;;;;24.58;18.05;;;18.60;99.90;;;;;;4995499;28;20635;-74
2023/05/05 10:26:02;;;;;;;24.27;18.88;;;18.60;99.90;;;;;;4995014;28;20081;-73
2023/05/05 10:28:32;;;;;;;25.13;17.75;;;18.70;99.90;;;;;;4993467;28;20075;-74
2023/05/05 10:31:00;;;;;;;22.33;16.02;;;18.80;99.90;;;;;;4997806;28;20124;-73
2023/05/05 10:33:38;;;;;;;25.27;16.75;;;18.80;99.90;;;;;;4999729;28;20041;-75
2023/05/05 10:36:05;;;;;;;21.05;15.40;;;18.80;99.90;;;;;;4998334;28;20038;-73
2023/05/05 10:38:32;;;;;;;22.75;15.82;;;18.80;99.90;;;;;;4980355;28;20453;-73
2023/05/05 10:41:01;;;;;;;21.00;16.15;;;18.80;99.90;;;;;;4996479;28;20050;-73
2023/05/05 10:43:29;;;;;;;19.25;14.38;;;18.80;99.90;;;;;;4994982;28;20165;-73
2023/05/05 10:45:55;;;;;;;22.60;14.25;;;18.90;99.90;;;;;;4998267;28;20592;-71
2023/05/05 10:48:35;;;;;;;18.35;13.95;;;18.90;99.90;;;;;;4997637;28;20060;-73
2023/05/05 10:51:40;;;;;;;21.63;15.13;;;18.90;99.90;;;;;;4995442;28;20042;-72
2023/05/05 10:54:22;;;;;;;19.75;15.02;;;18.90;99.90;;;;;;4998119;28;20053;-73
2023/05/05 10:56:48;;;;;;;20.38;14.77;;;18.80;99.90;;;;;;4999547;28;20046;-73
2023/05/05 10:59:38;;;;;;;18.40;13.05;;;18.80;99.90;;;;;;4994365;28;20041;-73
2023/05/05 11:02:23;;;;;;;18.67;13.48;;;18.80;99.90;;;;;;4995731;28;20033;-73
2023/05/05 11:05:13;;;;;;;18.45;12.82;;;18.80;99.90;;;;;;4996787;28;20609;-73
2023/05/05 11:07:40;;;;;;;18.35;12.85;;;18.80;99.90;;;;;;4994914;28;20074;-73
2023/05/05 11:10:08;;;;;;;17.48;12.27;;;18.90;99.90;;;;;;4979329;28;20145;-73
2023/05/05 11:12:58;;;;;;;16.23;12.30;;;19.00;99.90;;;;;;4980494;28;20116;-74
2023/05/05 11:15:29;;;;;;;18.13;11.70;;;19.10;99.90;;;;;;4995198;28;20073;-73
2023/05/05 11:17:56;;;;;;;15.70;11.30;;;19.10;99.90;;;;;;4997905;28;20203;-73
2023/05/05 11:20:51;;;;;;;15.07;10.65;;;19.20;99.90;;;;;;4991987;28;20750;-73
2023/05/05 11:23:23;;;;;;;17.15;10.25;;;19.20;99.90;;;;;;4991757;28;20478;-73
2023/05/05 11:25:50;;;;;;;16.58;10.90;;;19.20;99.90;;;;;;4992503;28;20403;-73
2023/05/05 11:28:20;;;;;;;15.23;10.93;;;19.10;99.90;;;;;;4994948;28;20056;-73
2023/05/05 11:30:55;;;;;;;14.93;11.27;;;19.10;99.90;;;;;;4998430;28;20491;-73
2023/05/05 11:33:39;;;;;;;14.90;10.68;;;19.10;99.90;;;;;;4991847;28;20041;-72
2023/05/05 11:36:09;;;;;;;15.25;9.43;;;19.00;99.90;;;;;;4997126;28;20530;-73
2023/05/05 11:38:38;;;;;;;14.35;8.82;;;19.10;99.90;;;;;;4976202;28;20673;-73
2023/05/05 11:41:13;;;;;;;13.88;9.10;;;19.10;99.90;;;;;;4997143;28;20517;-72
2023/05/05 11:43:42;;;;;;;13.77;7.88;;;19.10;99.90;;;;;;4968175;28;20060;-72
2023/05/05 11:46:12;;;;;;;13.07;6.40;;;19.10;99.90;;;;;;4995886;28;20207;-73
2023/05/05 11:48:45;;;;;;;10.07;5.40;;;19.10;99.90;;;;;;4999829;28;20046;-73
2023/05/05 11:51:12;;;;;;;11.23;5.97;;;19.10;99.90;;;;;;5001357;28;20084;-73
2023/05/05 11:53:46;;;;;;;12.05;6.55;;;19.10;99.90;;;;;;4989761;28;20053;-73
2023/05/05 11:56:21;;;;;;;10.35;5.10;;;19.10;99.90;;;;;;4993716;28;20508;-73
2023/05/05 11:59:09;;;;;;;6.97;3.15;;;19.10;99.90;;;;;;4999444;28;20046;-71
2023/05/05 12:01:40;;;;;;;9.20;5.25;;;19.10;99.90;;;;;;4999967;28;20055;-74
2023/05/05 12:04:07;;;;;;;14.45;7.00;;;19.20;99.90;;;;;;4997267;28;20046;-73
2023/05/05 12:06:32;;;;;;;11.73;7.13;;;19.20;99.90;;;;;;4981612;28;20046;-73
2023/05/05 12:08:59;;;;;;;13.88;7.78;;;19.20;99.90;;;;;;5000923;28;20120;-73
2023/05/05 12:11:25;;;;;;;12.82;7.47;;;19.20;99.90;;;;;;5001687;28;20052;-73
2023/05/05 12:14:07;;;;;;;13.43;7.15;;;19.10;99.90;;;;;;4998152;28;20046;-73
2023/05/05 12:16:32;;;;;;;10.75;5.55;;;19.10;99.90;;;;;;4999031;28;20049;-73
2023/05/05 12:19:06;;;;;;;14.15;6.70;;;19.10;99.90;;;;;;4994948;28;20058;-73
2023/05/05 12:21:32;;;;;;;12.00;7.00;;;19.10;99.90;;;;;;4995320;28;20680;-73
2023/05/05 12:23:58;;;;;;;13.75;7.07;;;19.10;99.90;;;;;;4997555;28;20046;-72
2023/05/05 12:26:28;;;;;;;12.18;6.45;;;19.10;99.90;;;;;;4983301;28;20805;-73
2023/05/05 12:28:55;;;;;;;11.88;6.35;;;19.10;99.90;;;;;;4999154;28;20038;-73
2023/05/05 12:31:20;;;;;;;10.40;6.05;;;19.20;99.90;;;;;;5001333;28;20042;-73
2023/05/05 12:33:47;;;;;;;11.55;6.18;;;19.20;99.90;;;;;;4998425;28;20038;-73
2023/05/05 12:36:14;;;;;;;12.45;6.38;;;19.20;99.90;;;;;;4994408;28;20046;-74
2023/05/05 12:38:40;;;;;;;10.80;5.78;;;19.20;99.90;;;;;;4997936;28;20080;-75
2023/05/05 12:41:06;;;;;;;9.77;5.15;;;19.20;99.90;;;;;;4979576;28;20045;-75
2023/05/05 12:43:35;;;;;;;12.10;4.65;;;19.20;99.90;;;;;;4999421;28;20049;-74
2023/05/05 12:46:08;;;;;;;11.48;4.72;;;19.10;99.90;;;;;;5002121;28;20050;-74